sensor_id;sensor_type;location;lat;lon;timestamp;pressure;altitude;pressure_sealevel;temperature;humidity
967;BME280;56108;48.730;9.304;2023-04-03T00:01:50;98280.09;;;2.24;98.28
967;BME280;56108;48.730;9.304;2023-04-03T00:03:58;98274.16;;;2.17;98.75
967;BME280;56108;48.730;9.304;2023-04-03T00:06:10;98274.84;;;2.25;99.23
967;BME280;56108;48.730;9.304;2023-04-03T00:08:18;98277.47;;;2.24;100.00
967;BME280;56108;48.730;9.304;2023-04-03T00:10:28;98275.81;;;2.21;99.96
967;BME280;56108;48.730;9.304;2023-04-03T00:12:36;98282.03;;;2.17;99.68
967;BME280;56108;48.730;9.304;2023-04-03T00:14:44;98274.03;;;2.22;99.71
967;BME280;56108;48.730;9.304;2023-04-03T00:16:54;98275.00;;;2.18;99.63
967;BME280;56108;48.730;9.304;2023-04-03T00:19:03;98276.28;;;2.37;98.81
967;BME280;56108;48.730;9.304;2023-04-03T00:21:14;98273.34;;;2.15;98.67
967;BME280;56108;48.730;9.304;2023-04-03T00:23:22;98276.97;;;2.09;99.35
967;BME280;56108;48.730;9.304;2023-04-03T00:25:31;98275.97;;;2.14;99.68
967;BME280;56108;48.730;9.304;2023-04-03T00:27:39;98276.88;;;2.13;99.11
967;BME280;56108;48.730;9.304;2023-04-03T00:29:48;98271.41;;;2.22;98.51
967;BME280;56108;48.730;9.304;2023-04-03T00:31:55;98281.09;;;2.20;97.94
967;BME280;56108;48.730;9.304;2023-04-03T00:34:04;98276.72;;;2.19;99.15
967;BME280;56108;48.730;9.304;2023-04-03T00:36:14;98276.97;;;2.09;98.87
967;BME280;56108;48.730;9.304;2023-04-03T00:38:23;98276.66;;;2.22;98.44
967;BME280;56108;48.730;9.304;2023-04-03T00:40:39;98281.22;;;2.14;98.73
967;BME280;56108;48.730;9.304;2023-04-03T00:42:54;98272.47;;;2.15;99.03
967;BME280;56108;48.730;9.304;2023-04-03T00:45:31;98269.97;;;2.08;98.16
967;BME280;56108;48.730;9.304;2023-04-03T00:47:40;98271.69;;;2.11;99.04
967;BME280;56108;48.730;9.304;2023-04-03T00:49:50;98266.97;;;2.25;100.00
967;BME280;56108;48.730;9.304;2023-04-03T00:52:03;98267.81;;;2.26;100.00
967;BME280;56108;48.730;9.304;2023-04-03T00:54:13;98266.97;;;2.24;100.00
967;BME280;56108;48.730;9.304;2023-04-03T00:56:23;98278.31;;;2.26;98.65
967;BME280;56108;48.730;9.304;2023-04-03T00:58:36;98274.97;;;2.19;98.86
967;BME280;56108;48.730;9.304;2023-04-03T01:00:49;98275.00;;;2.18;98.61
967;BME280;56108;48.730;9.304;2023-04-03T01:03:02;98270.28;;;2.32;100.00
967;BME280;56108;48.730;9.304;2023-04-03T01:05:12;98269.53;;;2.27;99.81
967;BME280;56108;48.730;9.304;2023-04-03T01:07:27;98276.22;;;2.39;100.00
967;BME280;56108;48.730;9.304;2023-04-03T01:09:39;98273.50;;;2.43;100.00
967;BME280;56108;48.730;9.304;2023-04-03T01:11:47;98281.41;;;2.42;98.81
967;BME280;56108;48.730;9.304;2023-04-03T01:13:55;98274.41;;;2.42;98.79
967;BME280;56108;48.730;9.304;2023-04-03T01:16:06;98269.78;;;2.52;99.44
967;BME280;56108;48.730;9.304;2023-04-03T01:18:14;98270.78;;;2.46;97.67
967;BME280;56108;48.730;9.304;2023-04-03T01:23:32;98276.72;;;2.20;98.16
967;BME280;56108;48.730;9.304;2023-04-03T01:25:47;98282.13;;;2.13;96.82
967;BME280;56108;48.730;9.304;2023-04-03T01:27:56;98278.34;;;2.24;97.00
967;BME280;56108;48.730;9.304;2023-04-03T01:30:12;98272.44;;;2.16;96.47
967;BME280;56108;48.730;9.304;2023-04-03T01:32:25;98275.16;;;2.12;97.05
967;BME280;56108;48.730;9.304;2023-04-03T01:34:33;98273.34;;;2.15;97.87
967;BME280;56108;48.730;9.304;2023-04-03T01:36:42;98268.09;;;2.14;97.69
967;BME280;56108;48.730;9.304;2023-04-03T01:38:50;98277.00;;;2.08;97.67
967;BME280;56108;48.730;9.304;2023-04-03T01:40:59;98270.97;;;2.04;97.54
967;BME280;56108;48.730;9.304;2023-04-03T01:43:07;98275.31;;;2.05;97.44
967;BME280;56108;48.730;9.304;2023-04-03T01:45:15;98275.38;;;2.02;96.94
967;BME280;56108;48.730;9.304;2023-04-03T01:47:26;98273.50;;;2.07;96.52
967;BME280;56108;48.730;9.304;2023-04-03T01:49:34;98279.78;;;2.02;97.51
967;BME280;56108;48.730;9.304;2023-04-03T01:51:43;98265.69;;;2.06;97.24
967;BME280;56108;48.730;9.304;2023-04-03T01:53:52;98272.53;;;2.12;96.70
967;BME280;56108;48.730;9.304;2023-04-03T01:56:02;98274.25;;;2.13;95.58
967;BME280;56108;48.730;9.304;2023-04-03T01:58:14;98271.84;;;2.03;96.04
967;BME280;56108;48.730;9.304;2023-04-03T02:00:22;98278.88;;;2.03;96.52
967;BME280;56108;48.730;9.304;2023-04-03T02:02:34;98270.56;;;2.21;97.66
967;BME280;56108;48.730;9.304;2023-04-03T02:04:42;98278.34;;;2.24;97.15
967;BME280;56108;48.730;9.304;2023-04-03T02:06:50;98281.84;;;2.25;96.97
967;BME280;56108;48.730;9.304;2023-04-03T02:09:00;98279.81;;;2.36;97.09
967;BME280;56108;48.730;9.304;2023-04-03T02:11:08;98276.47;;;2.29;97.59
967;BME280;56108;48.730;9.304;2023-04-03T02:13:17;98278.28;;;2.27;96.48
967;BME280;56108;48.730;9.304;2023-04-03T02:15:25;98277.31;;;2.31;96.07
967;BME280;56108;48.730;9.304;2023-04-03T02:17:36;98278.50;;;2.52;97.53
967;BME280;56108;48.730;9.304;2023-04-03T02:19:44;98279.41;;;2.51;97.29
967;BME280;56108;48.730;9.304;2023-04-03T02:21:52;98280.06;;;2.59;97.03
967;BME280;56108;48.730;9.304;2023-04-03T02:24:00;98276.38;;;2.67;98.59
967;BME280;56108;48.730;9.304;2023-04-03T02:26:11;98280.06;;;2.59;97.95
967;BME280;56108;48.730;9.304;2023-04-03T02:28:22;98287.25;;;2.53;97.39
967;BME280;56108;48.730;9.304;2023-04-03T02:30:30;98281.94;;;2.56;97.69
967;BME280;56108;48.730;9.304;2023-04-03T02:32:41;98286.56;;;2.46;93.07
967;BME280;56108;48.730;9.304;2023-04-03T02:34:50;98291.28;;;2.32;90.92
967;BME280;56108;48.730;9.304;2023-04-03T02:36:59;98287.66;;;2.38;91.01
967;BME280;56108;48.730;9.304;2023-04-03T02:39:07;98284.47;;;2.25;90.67
967;BME280;56108;48.730;9.304;2023-04-03T02:41:16;98294.81;;;2.31;90.12
967;BME280;56108;48.730;9.304;2023-04-03T02:43:24;98280.75;;;2.33;89.81
967;BME280;56108;48.730;9.304;2023-04-03T02:45:32;98286.91;;;2.32;89.74
967;BME280;56108;48.730;9.304;2023-04-03T02:47:44;98288.19;;;2.16;89.58
967;BME280;56108;48.730;9.304;2023-04-03T02:49:53;98284.59;;;2.19;89.36
967;BME280;56108;48.730;9.304;2023-04-03T02:52:03;98288.22;;;2.15;89.17
967;BME280;56108;48.730;9.304;2023-04-03T02:54:11;98284.75;;;2.13;89.97
967;BME280;56108;48.730;9.304;2023-04-03T02:56:24;98281.22;;;2.15;90.67
967;BME280;56108;48.730;9.304;2023-04-03T02:58:32;98284.59;;;2.19;89.91
967;BME280;56108;48.730;9.304;2023-04-03T03:00:42;98286.97;;;2.29;91.32
967;BME280;56108;48.730;9.304;2023-04-03T03:02:53;98281.16;;;2.17;90.58
967;BME280;56108;48.730;9.304;2023-04-03T03:05:01;98288.22;;;2.15;89.85
967;BME280;56108;48.730;9.304;2023-04-03T03:07:09;98278.59;;;2.15;89.71
967;BME280;56108;48.730;9.304;2023-04-03T03:09:18;98277.69;;;2.16;89.98
967;BME280;56108;48.730;9.304;2023-04-03T03:11:26;98288.34;;;2.08;90.63
967;BME280;56108;48.730;9.304;2023-04-03T03:13:35;98287.38;;;2.13;91.28
967;BME280;56108;48.730;9.304;2023-04-03T03:15:43;98283.94;;;2.11;90.53
967;BME280;56108;48.730;9.304;2023-04-03T03:17:54;98272.47;;;2.15;90.84
967;BME280;56108;48.730;9.304;2023-04-03T03:20:04;98278.75;;;2.09;90.57
967;BME280;56108;48.730;9.304;2023-04-03T03:22:12;98273.56;;;2.06;91.24
967;BME280;56108;48.730;9.304;2023-04-03T03:24:23;98279.66;;;2.06;90.66
967;BME280;56108;48.730;9.304;2023-04-03T03:26:31;98275.38;;;2.04;91.19
967;BME280;56108;48.730;9.304;2023-04-03T03:28:39;98275.16;;;2.12;91.80
967;BME280;56108;48.730;9.304;2023-04-03T03:30:49;98274.38;;;2.08;91.13
967;BME280;56108;48.730;9.304;2023-04-03T03:33:01;98284.97;;;2.03;91.24
967;BME280;56108;48.730;9.304;2023-04-03T03:35:09;98274.41;;;2.06;91.30
967;BME280;56108;48.730;9.304;2023-04-03T03:37:16;98275.22;;;2.08;91.21
967;BME280;56108;48.730;9.304;2023-04-03T03:39:25;98280.47;;;2.10;91.21
967;BME280;56108;48.730;9.304;2023-04-03T03:41:34;98279.72;;;2.03;91.65
967;BME280;56108;48.730;9.304;2023-04-03T03:43:42;98268.47;;;2.00;92.15
967;BME280;56108;48.730;9.304;2023-04-03T03:45:54;98266.69;;;2.00;91.52
967;BME280;56108;48.730;9.304;2023-04-03T03:48:07;98268.34;;;2.04;91.41
967;BME280;56108;48.730;9.304;2023-04-03T03:50:15;98272.75;;;2.02;91.62
967;BME280;56108;48.730;9.304;2023-04-03T03:52:24;98279.72;;;2.03;90.88
967;BME280;56108;48.730;9.304;2023-04-03T03:54:32;98276.19;;;2.06;90.44
967;BME280;56108;48.730;9.304;2023-04-03T03:56:40;98285.03;;;2.02;89.77
967;BME280;56108;48.730;9.304;2023-04-03T03:58:48;98280.63;;;2.02;90.54
967;BME280;56108;48.730;9.304;2023-04-03T04:01:02;98277.94;;;2.05;89.27
967;BME280;56108;48.730;9.304;2023-04-03T04:03:19;98284.00;;;2.07;88.56
967;BME280;56108;48.730;9.304;2023-04-03T04:05:29;98281.31;;;2.11;88.25
967;BME280;56108;48.730;9.304;2023-04-03T04:07:38;98288.34;;;2.10;87.52
967;BME280;56108;48.730;9.304;2023-04-03T04:09:46;98283.03;;;2.12;86.77
967;BME280;56108;48.730;9.304;2023-04-03T04:11:54;98280.25;;;2.18;86.49
967;BME280;56108;48.730;9.304;2023-04-03T04:14:04;98289.03;;;2.17;85.11
967;BME280;56108;48.730;9.304;2023-04-03T04:16:12;98284.59;;;2.19;85.40
967;BME280;56108;48.730;9.304;2023-04-03T04:18:24;98278.50;;;2.18;85.91
967;BME280;56108;48.730;9.304;2023-04-03T04:20:32;98291.72;;;2.15;86.38
967;BME280;56108;48.730;9.304;2023-04-03T04:22:40;98283.69;;;2.21;86.50
967;BME280;56108;48.730;9.304;2023-04-03T04:24:49;98286.34;;;2.20;86.68
967;BME280;56108;48.730;9.304;2023-04-03T04:26:57;98287.22;;;2.20;86.70
967;BME280;56108;48.730;9.304;2023-04-03T04:29:08;98279.41;;;2.17;86.43
967;BME280;56108;48.730;9.304;2023-04-03T04:31:17;98289.03;;;2.17;85.86
967;BME280;56108;48.730;9.304;2023-04-03T04:33:28;98285.56;;;2.16;85.74
967;BME280;56108;48.730;9.304;2023-04-03T04:35:41;98285.47;;;2.19;86.10
967;BME280;56108;48.730;9.304;2023-04-03T04:37:49;98285.41;;;2.22;86.02
967;BME280;56108;48.730;9.304;2023-04-03T04:39:58;98283.91;;;2.12;85.31
967;BME280;56108;48.730;9.304;2023-04-03T04:42:08;98278.59;;;2.14;85.82
967;BME280;56108;48.730;9.304;2023-04-03T04:44:21;98279.44;;;2.16;85.34
967;BME280;56108;48.730;9.304;2023-04-03T04:46:29;98280.53;;;2.07;85.43
967;BME280;56108;48.730;9.304;2023-04-03T04:48:40;98284.84;;;2.09;85.69
967;BME280;56108;48.730;9.304;2023-04-03T04:50:48;98289.09;;;2.15;84.37
967;BME280;56108;48.730;9.304;2023-04-03T04:52:56;98288.34;;;2.10;84.78
967;BME280;56108;48.730;9.304;2023-04-03T04:55:05;98290.88;;;2.13;85.72
967;BME280;56108;48.730;9.304;2023-04-03T04:57:14;98288.25;;;2.13;85.31
967;BME280;56108;48.730;9.304;2023-04-03T04:59:25;98289.16;;;2.12;84.82
967;BME280;56108;48.730;9.304;2023-04-03T05:01:35;98298.53;;;2.22;80.73
967;BME280;56108;48.730;9.304;2023-04-03T05:03:51;98293.34;;;2.19;82.62
967;BME280;56108;48.730;9.304;2023-04-03T05:06:03;98301.22;;;2.21;82.33
967;BME280;56108;48.730;9.304;2023-04-03T05:08:13;98296.91;;;2.17;82.93
967;BME280;56108;48.730;9.304;2023-04-03T05:10:21;98299.56;;;2.17;82.93
967;BME280;56108;48.730;9.304;2023-04-03T05:12:29;98302.13;;;2.20;82.62
967;BME280;56108;48.730;9.304;2023-04-03T05:14:40;98306.47;;;2.21;81.85
967;BME280;56108;48.730;9.304;2023-04-03T05:16:49;98309.78;;;2.27;81.73
967;BME280;56108;48.730;9.304;2023-04-03T05:19:03;98310.66;;;2.28;81.00
967;BME280;56108;48.730;9.304;2023-04-03T05:21:11;98308.94;;;2.27;80.06
967;BME280;56108;48.730;9.304;2023-04-03T05:23:19;98314.97;;;2.30;79.19
967;BME280;56108;48.730;9.304;2023-04-03T05:25:30;98308.66;;;2.38;79.85
967;BME280;56108;48.730;9.304;2023-04-03T05:27:38;98308.53;;;2.42;79.31
967;BME280;56108;48.730;9.304;2023-04-03T05:29:46;98313.47;;;2.54;79.69
967;BME280;56108;48.730;9.304;2023-04-03T05:31:58;98315.06;;;2.61;78.77
967;BME280;56108;48.730;9.304;2023-04-03T05:34:11;98325.94;;;2.80;78.30
967;BME280;56108;48.730;9.304;2023-04-03T05:36:20;98322.50;;;2.78;76.29
967;BME280;56108;48.730;9.304;2023-04-03T05:38:33;98324.72;;;2.92;75.34
967;BME280;56108;48.730;9.304;2023-04-03T05:40:41;98327.34;;;2.92;75.58
967;BME280;56108;48.730;9.304;2023-04-03T05:42:49;98320.50;;;2.86;75.60
967;BME280;56108;48.730;9.304;2023-04-03T05:45:01;98330.50;;;2.74;75.61
967;BME280;56108;48.730;9.304;2023-04-03T05:47:09;98325.53;;;2.63;76.55
967;BME280;56108;48.730;9.304;2023-04-03T05:49:20;98319.06;;;2.75;76.93
967;BME280;56108;48.730;9.304;2023-04-03T05:51:30;98325.19;;;2.75;76.44
967;BME280;56108;48.730;9.304;2023-04-03T05:53:46;98323.53;;;2.73;76.25
967;BME280;56108;48.730;9.304;2023-04-03T05:55:55;98324.25;;;2.78;77.07
967;BME280;56108;48.730;9.304;2023-04-03T05:58:03;98329.69;;;2.70;77.26
967;BME280;56108;48.730;9.304;2023-04-03T06:00:15;98329.25;;;2.87;77.60
967;BME280;56108;48.730;9.304;2023-04-03T06:02:32;98336.88;;;2.98;75.82
967;BME280;56108;48.730;9.304;2023-04-03T06:04:45;98330.44;;;2.77;74.86
967;BME280;56108;48.730;9.304;2023-04-03T06:06:56;98329.47;;;2.79;75.12
967;BME280;56108;48.730;9.304;2023-04-03T06:09:06;98333.81;;;2.80;75.51
967;BME280;56108;48.730;9.304;2023-04-03T06:11:19;98338.53;;;3.00;75.89
967;BME280;56108;48.730;9.304;2023-04-03T06:13:27;98342.94;;;3.00;75.69
967;BME280;56108;48.730;9.304;2023-04-03T06:15:39;98346.66;;;2.91;75.47
967;BME280;56108;48.730;9.304;2023-04-03T06:18:00;98338.50;;;3.33;74.32
967;BME280;56108;48.730;9.304;2023-04-03T06:20:14;98351.22;;;3.48;72.03
967;BME280;56108;48.730;9.304;2023-04-03T06:22:22;98349.38;;;3.21;72.55
967;BME280;56108;48.730;9.304;2023-04-03T06:24:31;98349.78;;;3.05;74.43
967;BME280;56108;48.730;9.304;2023-04-03T06:26:40;98351.81;;;2.96;74.90
967;BME280;56108;48.730;9.304;2023-04-03T06:28:49;98351.94;;;2.91;76.29
967;BME280;56108;48.730;9.304;2023-04-03T06:30:57;98354.25;;;3.03;76.53
967;BME280;56108;48.730;9.304;2023-04-03T06:33:05;98344.78;;;2.96;76.86
967;BME280;56108;48.730;9.304;2023-04-03T06:35:15;98349.28;;;2.91;77.08
967;BME280;56108;48.730;9.304;2023-04-03T06:37:24;98347.41;;;2.96;77.71
967;BME280;56108;48.730;9.304;2023-04-03T06:39:33;98346.34;;;3.03;77.76
967;BME280;56108;48.730;9.304;2023-04-03T06:41:42;98349.28;;;2.91;77.70
967;BME280;56108;48.730;9.304;2023-04-03T06:43:50;98346.44;;;3.00;78.66
967;BME280;56108;48.730;9.304;2023-04-03T06:46:08;98342.72;;;2.75;77.80
967;BME280;56108;48.730;9.304;2023-04-03T06:48:19;98344.72;;;2.65;78.74
967;BME280;56108;48.730;9.304;2023-04-03T06:50:31;98341.56;;;2.52;79.17
967;BME280;56108;48.730;9.304;2023-04-03T06:52:41;98342.31;;;2.57;80.35
967;BME280;56108;48.730;9.304;2023-04-03T06:54:50;98340.38;;;2.64;81.44
967;BME280;56108;48.730;9.304;2023-04-03T06:57:04;98346.50;;;2.65;80.71
967;BME280;56108;48.730;9.304;2023-04-03T06:59:12;98344.72;;;2.67;80.22
967;BME280;56108;48.730;9.304;2023-04-03T07:01:21;98353.75;;;2.89;80.61
967;BME280;56108;48.730;9.304;2023-04-03T07:03:31;98346.19;;;3.09;80.06
967;BME280;56108;48.730;9.304;2023-04-03T07:05:42;98347.44;;;3.27;79.52
967;BME280;56108;48.730;9.304;2023-04-03T07:07:50;98368.88;;;3.45;78.13
967;BME280;56108;48.730;9.304;2023-04-03T07:10:00;98365.03;;;3.56;77.70
967;BME280;56108;48.730;9.304;2023-04-03T07:12:11;98371.53;;;3.43;77.01
967;BME280;56108;48.730;9.304;2023-04-03T07:14:20;98363.09;;;3.32;77.13
967;BME280;56108;48.730;9.304;2023-04-03T07:16:28;98364.72;;;3.36;77.13
967;BME280;56108;48.730;9.304;2023-04-03T07:18:37;98366.69;;;3.29;77.28
967;BME280;56108;48.730;9.304;2023-04-03T07:20:49;98371.34;;;3.51;77.90
967;BME280;56108;48.730;9.304;2023-04-03T07:22:57;98374.19;;;3.73;75.91
967;BME280;56108;48.730;9.304;2023-04-03T07:25:08;98370.31;;;3.84;75.83
967;BME280;56108;48.730;9.304;2023-04-03T07:27:16;98380.78;;;4.15;75.22
967;BME280;56108;48.730;9.304;2023-04-03T07:29:25;98377.38;;;3.84;75.67
967;BME280;56108;48.730;9.304;2023-04-03T07:31:33;98380.44;;;3.69;76.44
967;BME280;56108;48.730;9.304;2023-04-03T07:33:46;98373.25;;;3.44;77.03
967;BME280;56108;48.730;9.304;2023-04-03T07:35:56;98367.72;;;3.53;77.19
967;BME280;56108;48.730;9.304;2023-04-03T07:38:05;98365.47;;;3.71;77.22
967;BME280;56108;48.730;9.304;2023-04-03T07:40:13;98371.94;;;3.60;nan
967;BME280;56108;48.730;9.304;2023-04-03T07:42:23;98376.69;;;3.77;77.66
967;BME280;56108;48.730;9.304;2023-04-03T07:44:31;98376.66;;;4.07;76.81
967;BME280;56108;48.730;9.304;2023-04-03T07:46:40;98391.78;;;4.00;74.97
967;BME280;56108;48.730;9.304;2023-04-03T07:48:48;98387.56;;;4.23;76.11
967;BME280;56108;48.730;9.304;2023-04-03T07:51:04;98390.44;;;4.43;74.32
967;BME280;56108;48.730;9.304;2023-04-03T07:53:12;98388.16;;;4.32;74.09
967;BME280;56108;48.730;9.304;2023-04-03T07:55:20;98388.41;;;4.25;73.78
967;BME280;56108;48.730;9.304;2023-04-03T07:57:28;98397.31;;;3.91;75.10
967;BME280;56108;48.730;9.304;2023-04-03T07:59:36;98392.44;;;3.79;76.20
967;BME280;56108;48.730;9.304;2023-04-03T08:01:46;98383.03;;;4.00;75.26
967;BME280;56108;48.730;9.304;2023-04-03T08:03:53;98392.56;;;4.32;74.58
967;BME280;56108;48.730;9.304;2023-04-03T08:06:06;98396.06;;;4.60;72.99
967;BME280;56108;48.730;9.304;2023-04-03T08:08:21;98395.53;;;4.49;72.20
967;BME280;56108;48.730;9.304;2023-04-03T08:10:30;98402.84;;;4.67;71.37
967;BME280;56108;48.730;9.304;2023-04-03T08:12:39;98400.47;;;4.86;71.55
967;BME280;56108;48.730;9.304;2023-04-03T08:14:46;98398.50;;;4.38;72.12
967;BME280;56108;48.730;9.304;2023-04-03T08:16:56;98405.06;;;4.53;71.90
967;BME280;56108;48.730;9.304;2023-04-03T08:19:05;98410.66;;;4.70;71.20
967;BME280;56108;48.730;9.304;2023-04-03T08:21:31;98409.03;;;4.93;70.77
967;BME280;56108;48.730;9.304;2023-04-03T08:23:41;98408.16;;;4.66;70.61
967;BME280;56108;48.730;9.304;2023-04-03T08:25:49;98399.19;;;4.45;72.82
967;BME280;56108;48.730;9.304;2023-04-03T08:27:58;98409.09;;;4.65;72.84
967;BME280;56108;48.730;9.304;2023-04-03T08:30:09;98403.38;;;4.23;72.97
967;BME280;56108;48.730;9.304;2023-04-03T08:32:20;98406.94;;;4.22;73.93
967;BME280;56108;48.730;9.304;2023-04-03T08:34:28;98406.81;;;4.54;74.12
967;BME280;56108;48.730;9.304;2023-04-03T08:36:42;98407.16;;;4.96;72.72
967;BME280;56108;48.730;9.304;2023-04-03T08:38:52;98417.16;;;4.87;69.49
967;BME280;56108;48.730;9.304;2023-04-03T08:41:04;98415.66;;;4.78;70.07
967;BME280;56108;48.730;9.304;2023-04-03T08:43:29;98415.44;;;4.58;69.21
967;BME280;56108;48.730;9.304;2023-04-03T08:45:45;98411.56;;;4.96;70.36
967;BME280;56108;48.730;9.304;2023-04-03T08:47:59;98407.22;;;5.45;69.04
967;BME280;56108;48.730;9.304;2023-04-03T08:50:12;98412.72;;;5.62;67.75
967;BME280;56108;48.730;9.304;2023-04-03T08:52:34;98420.09;;;5.78;66.34
967;BME280;56108;48.730;9.304;2023-04-03T08:54:49;98408.94;;;5.46;65.71
967;BME280;56108;48.730;9.304;2023-04-03T08:57:00;98416.16;;;5.41;65.22
967;BME280;56108;48.730;9.304;2023-04-03T08:59:13;98418.63;;;5.45;65.84
967;BME280;56108;48.730;9.304;2023-04-03T09:01:27;98413.66;;;5.61;65.92
967;BME280;56108;48.730;9.304;2023-04-03T09:03:42;98431.41;;;6.06;63.49
967;BME280;56108;48.730;9.304;2023-04-03T09:05:57;98424.59;;;5.99;62.76
967;BME280;56108;48.730;9.304;2023-04-03T09:08:16;98436.22;;;6.40;62.81
967;BME280;56108;48.730;9.304;2023-04-03T09:10:33;98439.50;;;6.69;62.88
967;BME280;56108;48.730;9.304;2023-04-03T09:12:47;98432.81;;;6.15;62.78
967;BME280;56108;48.730;9.304;2023-04-03T09:15:02;98429.25;;;5.92;63.89
967;BME280;56108;48.730;9.304;2023-04-03T09:17:33;98439.09;;;5.87;65.06
967;BME280;56108;48.730;9.304;2023-04-03T09:19:50;98438.13;;;5.66;63.56
967;BME280;56108;48.730;9.304;2023-04-03T09:22:07;98428.56;;;5.37;64.02
967;BME280;56108;48.730;9.304;2023-04-03T09:24:23;98425.75;;;5.43;64.64
967;BME280;56108;48.730;9.304;2023-04-03T09:26:35;98427.63;;;5.65;62.57
967;BME280;56108;48.730;9.304;2023-04-03T09:28:44;98448.19;;;5.30;62.47
967;BME280;56108;48.730;9.304;2023-04-03T09:30:54;98429.81;;;5.52;63.15
967;BME280;56108;48.730;9.304;2023-04-03T09:33:03;98432.63;;;5.47;62.59
967;BME280;56108;48.730;9.304;2023-04-03T09:35:18;98429.03;;;5.25;62.87
967;BME280;56108;48.730;9.304;2023-04-03T09:37:45;98429.34;;;5.41;62.23
967;BME280;56108;48.730;9.304;2023-04-03T09:39:56;98439.97;;;4.88;62.81
967;BME280;56108;48.730;9.304;2023-04-03T09:42:14;98441.69;;;4.89;63.22
967;BME280;56108;48.730;9.304;2023-04-03T09:44:25;98435.22;;;5.24;64.31
967;BME280;56108;48.730;9.304;2023-04-03T09:46:34;98440.59;;;4.96;61.58
967;BME280;56108;48.730;9.304;2023-04-03T09:48:50;98444.22;;;5.18;60.26
967;BME280;56108;48.730;9.304;2023-04-03T09:51:15;98437.50;;;5.58;59.84
967;BME280;56108;48.730;9.304;2023-04-03T09:53:30;98444.22;;;5.43;59.45
967;BME280;56108;48.730;9.304;2023-04-03T09:55:44;98440.28;;;5.55;59.57
967;BME280;56108;48.730;9.304;2023-04-03T09:57:53;98447.34;;;5.30;59.78
967;BME280;56108;48.730;9.304;2023-04-03T10:00:03;98453.81;;;4.94;58.45
967;BME280;56108;48.730;9.304;2023-04-03T10:02:24;98441.97;;;5.06;60.80
967;BME280;56108;48.730;9.304;2023-04-03T10:04:38;98443.75;;;5.06;62.85
967;BME280;56108;48.730;9.304;2023-04-03T10:06:48;98431.09;;;5.15;63.57
967;BME280;56108;48.730;9.304;2023-04-03T10:08:59;98442.59;;;4.88;62.10
967;BME280;56108;48.730;9.304;2023-04-03T10:11:14;98437.19;;;4.92;62.87
967;BME280;56108;48.730;9.304;2023-04-03T10:13:23;98435.75;;;4.82;61.44
967;BME280;56108;48.730;9.304;2023-04-03T10:15:36;98436.16;;;4.96;60.84
967;BME280;56108;48.730;9.304;2023-04-03T10:17:53;98437.38;;;5.13;60.01
967;BME280;56108;48.730;9.304;2023-04-03T10:20:17;98441.63;;;4.90;59.41
967;BME280;56108;48.730;9.304;2023-04-03T10:22:40;98432.47;;;4.76;61.28
967;BME280;56108;48.730;9.304;2023-04-03T10:25:04;98421.00;;;4.77;62.98
967;BME280;56108;48.730;9.304;2023-04-03T10:27:30;98430.56;;;4.79;62.30
967;BME280;56108;48.730;9.304;2023-04-03T10:29:46;98438.28;;;4.85;62.61
967;BME280;56108;48.730;9.304;2023-04-03T10:32:03;98423.56;;;4.78;63.39
967;BME280;56108;48.730;9.304;2023-04-03T10:34:20;98433.34;;;4.75;61.38
967;BME280;56108;48.730;9.304;2023-04-03T10:36:40;98431.41;;;5.06;61.24
967;BME280;56108;48.730;9.304;2023-04-03T10:38:57;98425.03;;;5.13;61.74
967;BME280;56108;48.730;9.304;2023-04-03T10:41:14;98442.94;;;5.04;59.99
967;BME280;56108;48.730;9.304;2023-04-03T10:43:33;98430.16;;;5.18;60.12
967;BME280;56108;48.730;9.304;2023-04-03T10:45:55;98439.13;;;4.59;61.42
967;BME280;56108;48.730;9.304;2023-04-03T10:48:08;98426.97;;;4.55;63.18
967;BME280;56108;48.730;9.304;2023-04-03T10:50:29;98425.06;;;4.59;64.54
967;BME280;56108;48.730;9.304;2023-04-03T10:52:46;98420.72;;;4.84;65.19
967;BME280;56108;48.730;9.304;2023-04-03T10:55:01;98430.91;;;4.68;64.32
967;BME280;56108;48.730;9.304;2023-04-03T10:57:14;98424.22;;;4.85;62.91
967;BME280;56108;48.730;9.304;2023-04-03T10:59:28;98426.31;;;5.02;61.68
967;BME280;56108;48.730;9.304;2023-04-03T11:01:40;98423.19;;;5.40;61.12
967;BME280;56108;48.730;9.304;2023-04-03T11:03:51;98425.78;;;5.42;60.39
967;BME280;56108;48.730;9.304;2023-04-03T11:06:04;98426.84;;;5.11;60.83
967;BME280;56108;48.730;9.304;2023-04-03T11:08:22;98430.06;;;4.94;59.63
967;BME280;56108;48.730;9.304;2023-04-03T11:10:39;98431.31;;;5.09;58.83
967;BME280;56108;48.730;9.304;2023-04-03T11:12:52;98428.47;;;5.15;58.86
967;BME280;56108;48.730;9.304;2023-04-03T11:15:12;98434.31;;;4.98;58.13
967;BME280;56108;48.730;9.304;2023-04-03T11:17:28;98433.56;;;4.68;58.72
967;BME280;56108;48.730;9.304;2023-04-03T11:19:43;98427.53;;;4.65;59.13
967;BME280;56108;48.730;9.304;2023-04-03T11:21:57;98433.47;;;4.71;58.56
967;BME280;56108;48.730;9.304;2023-04-03T11:24:17;98434.69;;;4.88;58.20
967;BME280;56108;48.730;9.304;2023-04-03T11:26:36;98437.72;;;5.02;57.64
967;BME280;56108;48.730;9.304;2023-04-03T11:28:46;98442.53;;;5.16;56.45
967;BME280;56108;48.730;9.304;2023-04-03T11:31:10;98438.09;;;5.16;55.14
967;BME280;56108;48.730;9.304;2023-04-03T11:33:28;98427.94;;;5.31;54.52
967;BME280;56108;48.730;9.304;2023-04-03T11:35:43;98440.13;;;5.35;53.85
967;BME280;56108;48.730;9.304;2023-04-03T11:37:53;98433.44;;;5.24;53.55
967;BME280;56108;48.730;9.304;2023-04-03T11:40:04;98437.94;;;5.21;54.12
967;BME280;56108;48.730;9.304;2023-04-03T11:42:24;98440.91;;;5.37;53.17
967;BME280;56108;48.730;9.304;2023-04-03T11:44:36;98434.91;;;5.33;53.32
967;BME280;56108;48.730;9.304;2023-04-03T11:46:55;98429.38;;;5.14;54.12
967;BME280;56108;48.730;9.304;2023-04-03T11:49:04;98440.03;;;5.38;54.70
967;BME280;56108;48.730;9.304;2023-04-03T11:56:51;98427.63;;;5.15;53.72
967;BME280;56108;48.730;9.304;2023-04-03T11:59:23;98420.94;;;5.30;53.92
967;BME280;56108;48.730;9.304;2023-04-03T12:01:43;98425.22;;;5.34;53.95
967;BME280;56108;48.730;9.304;2023-04-03T12:04:15;98419.53;;;5.44;53.57
967;BME280;56108;48.730;9.304;2023-04-03T12:09:37;98424.28;;;5.10;52.77
967;BME280;56108;48.730;9.304;2023-04-03T12:12:28;98409.25;;;5.37;53.53
967;BME280;56108;48.730;9.304;2023-04-03T12:14:38;98412.41;;;5.46;52.68
967;BME280;56108;48.730;9.304;2023-04-03T12:16:47;98419.88;;;5.35;52.49
967;BME280;56108;48.730;9.304;2023-04-03T12:19:03;98403.16;;;5.60;53.10